Llano Quemado, New Mexico
Current Conditions -  °F | °C
As of 5:15 PM on Friday 24 Oct 2014 (Local Time) from KSKX Reporting Station
Clear Clear  
Wind Chill: 23°   Ceiling: Unl
Heat Index: 23°   Visibility: 10mi
Dew Point: -4°   Wind: 9mph
Humidity: 16%   Direction: 230°SW
Pressure: 30.33"   Gusts: NA
Location:  36.2692°N, 105.543°W
Report Text: KSKX 242315Z AUTO 23008KT 10SM CLR 23/M04 A3033 RMK AO1
Loading
Personal Weather Stations






























Interactive Weather Map
Tropical Storm Tracking
New forecast layout! Learn more

10-Day Weather Forecast

Advertisements
Track Severe Weather on mobile